Time;durP1;ratioP1;P1;durP2;ratioP2;P2;SDS_P1;SDS_P2;PMS_P1;PMS_P2;Temp;Humidity;BMP_temperature;BMP_pressure;BME280_temperature;BME280_humidity;BME280_pressure;Samples;Min_cycle;Max_cycle;Signal;HPM_P1;HPM_P2
2022/11/05 00:10:15;;;;;;;4.22;2.53;;;8.90;99.90;;;;;;5073019;28;20043;-40
2022/11/05 00:18:09;;;;;;;5.20;2.10;;;9.10;99.90;;;;;;5086114;28;20055;-37
2022/11/05 00:20:35;;;;;;;4.13;2.03;;;9.20;99.90;;;;;;5078285;28;20032;-38
2022/11/05 00:26:00;;;;;;;3.35;2.15;;;9.20;99.90;;;;;;5074555;28;20047;-39
2022/11/05 00:28:28;;;;;;;2.75;1.88;;;9.20;99.90;;;;;;5085612;28;20198;-38
2022/11/05 00:31:00;;;;;;;3.92;1.60;;;9.20;99.90;;;;;;5072476;28;20097;-36
2022/11/05 00:33:28;;;;;;;2.22;1.63;;;9.20;99.90;;;;;;5085507;28;20048;-40
2022/11/05 00:35:54;;;;;;;1.98;1.60;;;9.20;99.90;;;;;;5072792;28;20035;-39
2022/11/05 00:38:19;;;;;;;3.55;2.10;;;9.20;99.90;;;;;;5084567;28;20028;-39
2022/11/05 00:40:45;;;;;;;2.40;2.08;;;9.20;99.90;;;;;;5073935;28;20480;-39
2022/11/05 00:45:55;;;;;;;2.97;2.45;;;9.00;99.90;;;;;;5073890;28;20433;-37
2022/11/05 00:51:08;;;;;;;4.38;2.55;;;9.00;99.90;;;;;;5072689;28;20046;-39
2022/11/05 00:53:33;;;;;;;5.07;2.38;;;8.90;99.90;;;;;;5085085;28;20024;-39
2022/11/05 00:55:59;;;;;;;2.90;2.42;;;8.80;99.90;;;;;;5075843;28;20098;-40
2022/11/05 00:58:26;;;;;;;4.45;2.45;;;8.80;99.90;;;;;;5081342;28;20133;-40
2022/11/05 01:00:59;;;;;;;2.30;2.10;;;8.80;99.90;;;;;;5078213;28;20020;-40
2022/11/05 01:03:31;;;;;;;3.85;2.30;;;8.80;99.90;;;;;;5080416;28;20063;-37
2022/11/05 01:06:04;;;;;;;4.05;2.25;;;8.80;99.90;;;;;;5079308;28;20694;-38
2022/11/05 01:08:29;;;;;;;3.60;2.13;;;8.80;99.90;;;;;;5079676;28;20372;-39
2022/11/05 01:10:57;;;;;;;4.10;2.22;;;8.70;99.90;;;;;;5080451;28;20491;-40
2022/11/05 01:13:26;;;;;;;4.75;2.25;;;8.70;99.90;;;;;;5076314;28;20470;-40
2022/11/05 01:15:52;;;;;;;4.88;2.40;;;8.60;99.90;;;;;;5082199;28;20386;-40
2022/11/05 01:18:19;;;;;;;2.42;2.20;;;8.60;99.90;;;;;;5073802;28;20039;-39
2022/11/05 01:20:46;;;;;;;3.15;2.42;;;8.50;99.90;;;;;;5083552;28;20020;-41
2022/11/05 01:23:11;;;;;;;3.22;2.30;;;8.50;99.90;;;;;;5073828;28;20020;-40
2022/11/05 01:25:37;;;;;;;4.25;2.42;;;8.40;99.90;;;;;;5083010;28;20031;-38
2022/11/05 01:28:03;;;;;;;3.15;2.40;;;8.40;99.90;;;;;;5073381;28;20062;-38
2022/11/05 01:30:30;;;;;;;3.95;2.65;;;8.30;99.90;;;;;;5066381;28;20024;-38
2022/11/05 01:32:56;;;;;;;4.18;2.40;;;8.30;99.90;;;;;;5071377;28;20024;-41
2022/11/05 01:35:22;;;;;;;2.85;2.47;;;8.30;99.90;;;;;;5084453;28;20232;-40
2022/11/05 01:37:47;;;;;;;4.68;2.50;;;8.20;99.90;;;;;;5072196;28;20115;-39
2022/11/05 01:40:16;;;;;;;3.35;2.70;;;8.20;99.90;;;;;;5083212;28;20039;-40
2022/11/05 01:42:42;;;;;;;3.67;2.53;;;8.20;99.90;;;;;;5073555;28;20357;-40
2022/11/05 01:45:19;;;;;;;4.50;2.83;;;8.20;99.90;;;;;;5083207;28;20062;-41
2022/11/05 01:47:55;;;;;;;4.15;2.78;;;8.20;99.90;;;;;;5074208;28;20383;-40
2022/11/05 01:50:32;;;;;;;3.40;2.88;;;8.20;99.90;;;;;;5083111;28;20708;-39
2022/11/05 01:53:19;;;;;;;4.28;2.67;;;8.20;99.90;;;;;;5073565;28;20160;-41
2022/11/05 01:55:50;;;;;;;3.67;2.90;;;8.10;99.90;;;;;;5063857;28;20133;-40
2022/11/05 01:58:19;;;;;;;4.47;2.92;;;8.10;99.90;;;;;;5074551;28;20039;-38
2022/11/05 02:00:45;;;;;;;5.50;3.20;;;8.10;99.90;;;;;;5063560;28;20020;-40
2022/11/05 02:03:13;;;;;;;3.58;3.00;;;8.00;99.90;;;;;;5072245;28;20016;-40
2022/11/05 02:05:40;;;;;;;3.75;2.60;;;8.00;99.90;;;;;;5067485;28;20036;-40
2022/11/05 02:08:10;;;;;;;3.30;2.78;;;8.00;99.90;;;;;;5069769;28;20371;-40
2022/11/05 02:10:36;;;;;;;5.07;2.97;;;8.00;99.90;;;;;;5070931;28;20032;-39
2022/11/05 02:13:02;;;;;;;3.30;2.90;;;7.90;99.90;;;;;;5068567;28;20030;-40
2022/11/05 02:15:50;;;;;;;5.53;3.08;;;7.90;99.90;;;;;;5070559;28;20028;-41
2022/11/05 02:18:30;;;;;;;3.03;2.78;;;7.90;99.90;;;;;;5068544;28;20028;-39
2022/11/05 02:21:25;;;;;;;3.70;2.75;;;7.80;99.90;;;;;;5069012;28;20024;-41
2022/11/05 02:24:26;;;;;;;3.30;2.60;;;7.80;99.90;;;;;;5071772;28;20039;-39
2022/11/05 02:27:13;;;;;;;4.47;3.22;;;7.70;99.90;;;;;;5064798;28;20162;-40
2022/11/05 02:30:02;;;;;;;3.13;2.63;;;7.70;99.90;;;;;;5076165;28;20472;-40
2022/11/05 02:32:47;;;;;;;2.97;2.60;;;7.70;99.90;;;;;;5063697;28;20029;-41
2022/11/05 02:35:32;;;;;;;4.20;2.80;;;7.70;99.90;;;;;;5071031;28;20067;-39
2022/11/05 02:38:14;;;;;;;4.35;3.10;;;7.60;99.90;;;;;;5067776;28;20049;-40
2022/11/05 02:40:56;;;;;;;3.88;3.15;;;7.60;99.90;;;;;;5075100;28;20035;-40
2022/11/05 02:43:29;;;;;;;7.70;3.15;;;7.60;99.90;;;;;;5063621;28;20024;-40
2022/11/05 02:46:17;;;;;;;6.00;3.10;;;7.60;99.90;;;;;;5075194;28;20023;-38
2022/11/05 02:49:10;;;;;;;3.30;3.00;;;7.60;99.90;;;;;;5064575;28;20031;-38
2022/11/05 02:51:55;;;;;;;4.00;3.35;;;7.60;99.90;;;;;;5074799;28;20023;-40
2022/11/05 02:54:34;;;;;;;4.45;3.20;;;7.60;99.90;;;;;;5078249;28;20029;-40
2022/11/05 02:57:02;;;;;;;3.80;3.40;;;7.60;99.90;;;;;;5076680;28;20028;-41
2022/11/05 02:59:27;;;;;;;3.38;2.65;;;7.50;99.90;;;;;;5078963;28;20044;-40
2022/11/05 03:01:54;;;;;;;3.00;2.50;;;7.50;99.90;;;;;;5075209;28;20028;-41
2022/11/05 03:04:22;;;;;;;3.40;2.92;;;7.50;99.90;;;;;;5080649;28;20487;-40
2022/11/05 03:07:02;;;;;;;10.45;2.85;;;7.50;99.90;;;;;;5072805;28;20088;-40
2022/11/05 03:09:53;;;;;;;14.20;2.70;;;7.50;99.90;;;;;;5081669;28;20737;-41
2022/11/05 03:12:40;;;;;;;6.57;2.25;;;7.50;99.90;;;;;;5074714;28;20375;-40
2022/11/05 03:15:18;;;;;;;4.47;2.83;;;7.50;99.90;;;;;;5078286;28;20077;-40
2022/11/05 03:18:04;;;;;;;6.68;2.60;;;7.50;99.90;;;;;;5077165;28;20366;-40
2022/11/05 03:20:43;;;;;;;5.22;2.30;;;7.50;99.90;;;;;;5076279;28;20036;-40
2022/11/05 03:23:34;;;;;;;4.18;2.50;;;7.40;99.90;;;;;;5079151;28;20081;-40
2022/11/05 03:26:06;;;;;;;4.97;2.83;;;7.50;99.90;;;;;;5058639;28;20036;-40
2022/11/05 03:28:37;;;;;;;9.98;2.70;;;7.40;99.90;;;;;;5080892;28;20157;-41
2022/11/05 03:31:05;;;;;;;3.58;2.95;;;7.40;99.90;;;;;;5074530;28;20131;-38
2022/11/05 03:33:33;;;;;;;5.10;3.00;;;7.40;99.90;;;;;;5078014;28;20064;-39
2022/11/05 03:36:04;;;;;;;3.28;2.90;;;7.30;99.90;;;;;;5076628;28;20066;-38
2022/11/05 03:38:36;;;;;;;3.33;3.00;;;7.30;99.90;;;;;;5077157;28;20058;-38
2022/11/05 03:41:09;;;;;;;3.70;2.95;;;7.30;99.90;;;;;;5076463;28;20380;-40
2022/11/05 03:43:39;;;;;;;3.40;3.10;;;7.30;99.90;;;;;;5076841;28;20039;-39
2022/11/05 03:46:09;;;;;;;4.90;3.20;;;7.20;99.90;;;;;;5078180;28;20062;-39
2022/11/05 03:48:42;;;;;;;4.07;3.20;;;7.20;99.90;;;;;;5075500;28;20028;-41
2022/11/05 03:51:30;;;;;;;5.07;3.28;;;7.20;99.90;;;;;;5078550;28;20027;-38
2022/11/05 03:53:58;;;;;;;3.40;2.80;;;7.20;99.90;;;;;;5075865;28;20028;-39
2022/11/05 03:56:53;;;;;;;3.80;3.50;;;7.20;99.90;;;;;;5078085;28;20025;-40
2022/11/05 03:59:20;;;;;;;3.65;2.92;;;7.20;99.90;;;;;;5077507;28;20043;-39
2022/11/05 04:01:47;;;;;;;3.35;2.95;;;7.20;99.90;;;;;;5076161;28;20025;-40
2022/11/05 04:04:15;;;;;;;3.60;3.10;;;7.10;99.90;;;;;;5075894;28;20111;-41
2022/11/05 04:14:54;;;;;;;3.47;3.03;;;7.00;99.90;;;;;;5066152;28;21071;-39
2022/11/05 04:17:19;;;;;;;4.88;3.20;;;7.00;99.90;;;;;;5068316;28;20099;-37
2022/11/05 04:25:21;;;;;;;2.90;2.70;;;7.00;99.90;;;;;;5068956;28;20174;-39
2022/11/05 04:27:47;;;;;;;3.22;2.92;;;6.90;99.90;;;;;;5073393;28;20659;-38
2022/11/05 04:30:17;;;;;;;2.50;2.30;;;6.90;99.90;;;;;;5070814;28;20020;-40
2022/11/05 04:33:09;;;;;;;3.65;2.80;;;6.90;99.90;;;;;;5070763;28;20463;-39
2022/11/05 04:35:38;;;;;;;6.53;2.80;;;6.90;99.90;;;;;;5069092;28;20478;-39
2022/11/05 04:38:05;;;;;;;3.00;2.63;;;6.90;99.90;;;;;;5072607;28;20828;-37
2022/11/05 04:40:31;;;;;;;3.72;2.88;;;6.90;99.90;;;;;;5071301;28;20017;-38
2022/11/05 04:42:58;;;;;;;3.08;2.50;;;6.90;99.90;;;;;;5069146;28;20935;-40
2022/11/05 04:45:24;;;;;;;3.20;2.90;;;6.90;99.90;;;;;;5074212;28;20024;-39
2022/11/05 04:47:50;;;;;;;3.42;2.50;;;6.90;99.90;;;;;;5067171;28;20017;-40
2022/11/05 04:50:16;;;;;;;3.38;2.78;;;6.90;99.90;;;;;;5075417;28;20023;-37
2022/11/05 04:52:42;;;;;;;3.13;2.60;;;6.90;99.90;;;;;;5067210;28;20524;-40
2022/11/05 04:55:08;;;;;;;4.25;2.78;;;6.90;99.90;;;;;;5076661;28;20027;-41
2022/11/05 04:57:34;;;;;;;3.45;2.40;;;6.90;99.90;;;;;;5065536;28;20115;-40
2022/11/05 05:00:00;;;;;;;2.97;2.47;;;6.80;99.90;;;;;;5077187;28;20098;-38
2022/11/05 05:02:25;;;;;;;2.78;2.58;;;6.80;99.90;;;;;;5065311;28;20024;-40
2022/11/05 05:04:51;;;;;;;3.00;2.70;;;6.80;99.90;;;;;;5077105;28;20101;-41
2022/11/05 05:07:16;;;;;;;2.60;2.40;;;6.80;99.90;;;;;;5064383;28;20537;-39
2022/11/05 05:09:42;;;;;;;3.30;2.50;;;6.80;99.90;;;;;;5076441;28;20036;-40
2022/11/05 05:12:10;;;;;;;3.80;2.80;;;6.80;99.90;;;;;;5065115;28;20028;-40
2022/11/05 05:14:36;;;;;;;2.95;2.65;;;6.70;99.90;;;;;;5074166;28;20063;-40
2022/11/05 05:17:01;;;;;;;2.95;2.67;;;6.70;99.90;;;;;;5068725;28;20056;-41
2022/11/05 05:19:27;;;;;;;4.28;2.90;;;6.70;99.90;;;;;;5070029;28;20494;-41
2022/11/05 05:21:52;;;;;;;3.58;2.90;;;6.70;99.90;;;;;;5071070;28;20131;-39
2022/11/05 05:24:20;;;;;;;3.45;3.00;;;6.60;99.90;;;;;;5068119;28;20116;-40
2022/11/05 05:26:50;;;;;;;3.28;2.90;;;6.60;99.90;;;;;;5073343;28;20028;-38
2022/11/05 05:29:16;;;;;;;3.30;2.92;;;6.60;99.90;;;;;;5066241;28;20078;-40
2022/11/05 05:31:45;;;;;;;4.38;2.80;;;6.60;99.90;;;;;;5075033;28;20020;-40
2022/11/05 05:34:12;;;;;;;3.80;2.88;;;6.60;99.90;;;;;;5063908;28;20048;-40
2022/11/05 05:36:38;;;;;;;4.25;3.20;;;6.60;99.90;;;;;;5076511;28;20154;-39
2022/11/05 05:39:05;;;;;;;3.95;3.17;;;6.60;99.90;;;;;;5065406;28;20056;-38
2022/11/05 05:41:31;;;;;;;3.45;3.15;;;6.60;99.90;;;;;;5075636;28;20027;-40
2022/11/05 05:43:56;;;;;;;4.13;3.70;;;6.60;99.90;;;;;;5065217;28;20650;-40
2022/11/05 05:46:22;;;;;;;3.85;3.10;;;6.60;99.90;;;;;;5075753;28;21357;-39
2022/11/05 05:48:49;;;;;;;5.45;2.92;;;6.60;99.90;;;;;;5064801;28;20025;-41
2022/11/05 05:51:15;;;;;;;3.80;3.10;;;6.60;99.90;;;;;;5076505;28;20035;-38
2022/11/05 05:53:41;;;;;;;3.95;3.50;;;6.50;99.90;;;;;;5064056;28;20063;-40
2022/11/05 05:56:07;;;;;;;6.45;3.65;;;6.50;99.90;;;;;;5074967;28;20456;-40
2022/11/05 05:58:38;;;;;;;5.20;3.45;;;6.50;99.90;;;;;;5066947;28;20482;-42
2022/11/05 06:01:10;;;;;;;3.55;3.25;;;6.50;99.90;;;;;;5072038;28;20024;-40
2022/11/05 06:03:36;;;;;;;4.93;3.35;;;6.50;99.90;;;;;;5067609;28;20380;-38
2022/11/05 06:06:04;;;;;;;4.55;3.88;;;6.50;99.90;;;;;;5071103;28;20033;-40
2022/11/05 06:08:30;;;;;;;3.95;3.40;;;6.60;99.90;;;;;;5068940;28;20032;-39
2022/11/05 06:10:56;;;;;;;5.47;3.50;;;6.60;99.90;;;;;;5068850;28;20028;-40
2022/11/05 06:13:21;;;;;;;4.43;3.58;;;6.50;99.90;;;;;;5072309;28;20090;-40
2022/11/05 06:15:47;;;;;;;5.07;3.72;;;6.50;99.90;;;;;;5065679;28;20032;-40
2022/11/05 06:18:15;;;;;;;4.18;3.08;;;6.50;99.90;;;;;;5074205;28;20041;-37
2022/11/05 06:20:41;;;;;;;5.45;3.45;;;6.50;99.90;;;;;;5064715;28;20036;-38
2022/11/05 06:23:07;;;;;;;4.55;3.60;;;6.40;99.90;;;;;;5074856;28;20020;-39
2022/11/05 06:25:32;;;;;;;4.25;3.40;;;6.40;99.90;;;;;;5064653;28;20024;-39
2022/11/05 06:27:58;;;;;;;4.85;3.42;;;6.40;99.90;;;;;;5075172;28;20017;-37
2022/11/05 06:30:24;;;;;;;5.18;3.83;;;6.40;99.90;;;;;;5063256;28;20031;-39
2022/11/05 06:32:49;;;;;;;5.40;3.72;;;6.40;99.90;;;;;;5076279;28;20783;-40
2022/11/05 06:35:15;;;;;;;5.00;3.53;;;6.40;99.90;;;;;;5062220;28;20055;-40
2022/11/05 06:37:41;;;;;;;6.20;4.00;;;6.40;99.90;;;;;;5075121;28;20028;-39
2022/11/05 06:40:08;;;;;;;4.75;3.90;;;6.40;99.90;;;;;;5062834;28;20052;-40
2022/11/05 06:42:33;;;;;;;4.72;4.10;;;6.40;99.90;;;;;;5072889;28;20153;-39
2022/11/05 06:44:59;;;;;;;5.07;3.95;;;6.40;99.90;;;;;;5065997;28;20381;-40
2022/11/05 06:47:25;;;;;;;4.47;4.03;;;6.40;99.90;;;;;;5069438;28;20725;-40
2022/11/05 06:49:50;;;;;;;4.70;3.47;;;6.40;99.90;;;;;;5069097;28;20051;-40
2022/11/05 06:52:16;;;;;;;4.97;3.65;;;6.40;99.90;;;;;;5066800;28;20124;-40
2022/11/05 06:54:42;;;;;;;4.68;3.92;;;6.40;99.90;;;;;;5071826;28;20312;-39
2022/11/05 06:57:09;;;;;;;4.53;4.13;;;6.40;99.90;;;;;;5063816;28;20017;-40
2022/11/05 06:59:36;;;;;;;4.63;4.18;;;6.40;99.90;;;;;;5074160;28;20617;-40
2022/11/05 07:02:01;;;;;;;3.80;3.45;;;6.40;99.90;;;;;;5064492;28;20028;-40
2022/11/05 07:04:27;;;;;;;6.25;3.63;;;6.40;99.90;;;;;;5073758;28;20559;-37
2022/11/05 07:06:52;;;;;;;4.40;4.00;;;6.40;99.90;;;;;;5063477;28;20484;-39
2022/11/05 07:09:18;;;;;;;4.28;3.88;;;6.40;99.90;;;;;;5075043;28;20391;-38
2022/11/05 07:11:43;;;;;;;4.68;3.90;;;6.40;99.90;;;;;;5070049;28;20106;-40
2022/11/05 07:14:09;;;;;;;4.72;3.80;;;6.40;99.90;;;;;;5069809;28;20043;-42
2022/11/05 07:16:38;;;;;;;5.75;3.90;;;6.40;99.90;;;;;;5083821;28;20111;-38
2022/11/05 07:19:03;;;;;;;5.65;3.78;;;6.40;99.90;;;;;;5070784;28;20503;-40
2022/11/05 07:21:29;;;;;;;5.97;4.05;;;6.40;99.90;;;;;;5082340;28;20028;-39
2022/11/05 07:23:54;;;;;;;5.97;3.67;;;6.40;99.90;;;;;;5074844;28;20031;-39
2022/11/05 07:26:20;;;;;;;5.57;4.07;;;6.50;99.90;;;;;;5078941;28;20028;-40
2022/11/05 07:28:48;;;;;;;4.53;4.07;;;6.50;99.90;;;;;;5076448;28;20048;-39
2022/11/05 07:31:14;;;;;;;5.07;4.30;;;6.50;99.90;;;;;;5076268;28;20075;-38
2022/11/05 07:33:40;;;;;;;5.63;4.35;;;6.50;99.90;;;;;;5079121;28;20132;-39
2022/11/05 07:36:05;;;;;;;4.95;4.20;;;6.50;99.90;;;;;;5075033;28;20063;-41
2022/11/05 07:38:31;;;;;;;6.82;4.63;;;6.50;99.90;;;;;;5081053;28;20031;-39
2022/11/05 07:40:59;;;;;;;8.38;4.20;;;6.50;99.90;;;;;;5073187;28;20780;-41
2022/11/05 07:43:24;;;;;;;4.75;4.30;;;6.50;99.90;;;;;;5081870;28;20056;-39
2022/11/05 07:45:50;;;;;;;6.00;4.53;;;6.60;99.90;;;;;;5072555;28;20502;-40
2022/11/05 07:48:15;;;;;;;5.68;4.25;;;6.60;99.90;;;;;;5082080;28;20024;-39
2022/11/05 07:50:41;;;;;;;6.28;4.70;;;6.60;99.90;;;;;;5070576;28;20012;-40
2022/11/05 07:53:10;;;;;;;6.15;4.63;;;6.60;99.90;;;;;;5082458;28;20101;-41
2022/11/05 07:55:36;;;;;;;7.30;4.38;;;6.60;99.90;;;;;;5070116;28;20462;-39
2022/11/05 07:58:02;;;;;;;4.18;3.63;;;6.60;99.90;;;;;;5084904;28;20843;-38
2022/11/05 08:00:28;;;;;;;6.32;4.68;;;6.70;99.90;;;;;;5074187;28;20525;-39
2022/11/05 08:03:05;;;;;;;6.15;5.00;;;6.70;99.90;;;;;;5086300;28;20109;-40
2022/11/05 08:05:33;;;;;;;6.13;4.95;;;6.70;99.90;;;;;;5075775;28;20028;-39
2022/11/05 08:07:59;;;;;;;8.25;5.13;;;6.70;99.90;;;;;;5085000;28;20020;-40
2022/11/05 08:10:25;;;;;;;6.22;4.60;;;6.80;99.90;;;;;;5077426;28;20032;-37
2022/11/05 08:12:52;;;;;;;5.82;4.72;;;6.80;99.90;;;;;;5083563;28;20072;-39
2022/11/05 08:15:18;;;;;;;7.57;4.82;;;6.80;99.90;;;;;;5079046;28;20212;-40
2022/11/05 08:17:43;;;;;;;6.95;5.57;;;6.90;99.90;;;;;;5080340;28;20459;-39
2022/11/05 08:20:10;;;;;;;6.80;4.65;;;6.90;99.90;;;;;;5082664;28;20935;-40
2022/11/05 08:22:35;;;;;;;7.45;5.07;;;6.90;99.90;;;;;;5077131;28;20024;-40
2022/11/05 08:25:01;;;;;;;6.43;5.30;;;7.00;99.90;;;;;;5085112;28;20070;-39
2022/11/05 08:27:27;;;;;;;8.55;6.38;;;7.00;99.90;;;;;;5074284;28;20919;-37
2022/11/05 08:29:52;;;;;;;7.95;6.40;;;7.00;99.90;;;;;;5084993;28;20039;-39
2022/11/05 08:32:18;;;;;;;8.55;6.60;;;7.10;99.90;;;;;;5074673;28;20467;-38
2022/11/05 08:34:44;;;;;;;7.68;5.47;;;7.10;99.90;;;;;;5086318;28;20062;-40
2022/11/05 08:37:10;;;;;;;10.70;6.43;;;7.20;99.90;;;;;;5073639;28;20020;-39
2022/11/05 08:39:44;;;;;;;9.27;6.60;;;7.20;99.90;;;;;;5087034;28;20043;-40
2022/11/05 08:42:10;;;;;;;7.25;5.78;;;7.30;99.90;;;;;;5072740;28;20024;-39
2022/11/05 08:44:36;;;;;;;8.63;5.75;;;7.30;99.90;;;;;;5086729;28;20031;-41
2022/11/05 08:47:01;;;;;;;7.70;5.93;;;7.30;99.90;;;;;;5073987;28;20024;-39
2022/11/05 08:49:27;;;;;;;7.80;6.30;;;7.40;99.90;;;;;;5083441;28;20036;-38
2022/11/05 08:51:52;;;;;;;6.57;5.20;;;7.40;99.90;;;;;;5076726;28;20021;-39
2022/11/05 08:54:18;;;;;;;8.95;5.63;;;7.50;99.90;;;;;;5081847;28;20031;-37
2022/11/05 08:56:50;;;;;;;6.32;5.40;;;7.60;99.90;;;;;;5078548;28;20360;-41
2022/11/05 08:59:15;;;;;;;6.97;5.32;;;7.60;99.90;;;;;;5080269;28;20035;-41
2022/11/05 09:01:44;;;;;;;7.95;6.22;;;7.70;99.90;;;;;;5080411;28;20021;-38
2022/11/05 09:04:12;;;;;;;6.65;5.95;;;7.70;99.90;;;;;;5077188;28;20093;-39
2022/11/05 09:06:38;;;;;;;5.63;5.03;;;7.70;99.90;;;;;;5082552;28;20550;-40
2022/11/05 09:09:03;;;;;;;8.63;6.10;;;7.80;99.90;;;;;;5075517;28;20039;-37
2022/11/05 09:11:29;;;;;;;11.55;6.25;;;7.80;99.90;;;;;;5080521;28;20079;-39
2022/11/05 09:13:54;;;;;;;7.75;5.90;;;7.90;99.90;;;;;;5076607;28;20029;-40
2022/11/05 09:16:22;;;;;;;7.00;5.38;;;8.00;99.90;;;;;;5065934;28;20039;-40
2022/11/05 09:18:49;;;;;;;5.40;4.80;;;8.00;99.90;;;;;;5075613;28;20754;-41
2022/11/05 09:21:16;;;;;;;7.10;5.88;;;8.10;99.90;;;;;;5064771;28;20028;-38
2022/11/05 09:23:41;;;;;;;8.00;5.80;;;8.10;99.90;;;;;;5077112;28;20417;-42
2022/11/05 09:26:08;;;;;;;8.80;5.93;;;8.20;99.90;;;;;;5065354;28;20574;-41
2022/11/05 09:28:34;;;;;;;8.13;6.10;;;8.20;99.90;;;;;;5078178;28;20024;-38
2022/11/05 09:31:03;;;;;;;9.00;6.00;;;8.30;99.90;;;;;;5064685;28;20678;-40
2022/11/05 09:33:29;;;;;;;6.45;5.35;;;8.40;99.90;;;;;;5075409;28;20044;-39
2022/11/05 09:35:58;;;;;;;5.93;4.78;;;8.50;99.90;;;;;;5066085;28;20033;-41
2022/11/05 09:38:26;;;;;;;7.53;5.63;;;8.50;99.90;;;;;;5073196;28;20484;-40
2022/11/05 09:41:34;;;;;;;8.32;5.80;;;8.70;99.90;;;;;;5067029;28;20125;-41
2022/11/05 09:44:04;;;;;;;7.03;5.28;;;8.80;99.90;;;;;;4974893;28;20070;-39
2022/11/05 09:46:59;;;;;;;7.05;5.18;;;8.80;99.90;;;;;;5050609;28;20036;-40
2022/11/05 09:49:46;;;;;;;7.78;5.32;;;8.80;99.90;;;;;;5076233;28;20090;-41
2022/11/05 09:52:22;;;;;;;7.68;5.47;;;8.80;99.90;;;;;;5062645;28;20029;-40
2022/11/05 09:54:49;;;;;;;7.20;4.93;;;8.90;99.90;;;;;;5073390;28;20016;-42
2022/11/05 09:57:28;;;;;;;5.68;4.70;;;8.90;99.90;;;;;;5085182;28;20027;-39
2022/11/05 09:59:57;;;;;;;6.47;5.18;;;9.00;99.90;;;;;;5071390;28;20068;-41
2022/11/05 10:02:36;;;;;;;6.53;5.35;;;9.10;99.90;;;;;;5084656;28;20039;-41
2022/11/05 10:05:07;;;;;;;6.40;4.88;;;9.20;99.90;;;;;;5072063;28;20099;-39
2022/11/05 10:07:41;;;;;;;6.53;5.57;;;9.30;99.90;;;;;;5084517;28;20039;-41
2022/11/05 10:10:26;;;;;;;4.95;4.43;;;9.40;99.90;;;;;;5071387;28;20020;-39
2022/11/05 10:12:55;;;;;;;7.75;5.40;;;9.40;99.90;;;;;;5065850;28;20070;-39
2022/11/05 10:15:27;;;;;;;5.72;5.05;;;9.50;99.90;;;;;;5070629;28;20648;-35
2022/11/05 10:18:02;;;;;;;7.07;4.13;;;9.60;99.90;;;;;;5084807;28;20692;-37
2022/11/05 10:20:33;;;;;;;7.07;4.93;;;9.70;99.90;;;;;;5069911;28;20044;-33
2022/11/05 10:23:17;;;;;;;5.55;4.85;;;9.70;99.90;;;;;;5084884;28;20027;-40
2022/11/05 10:25:46;;;;;;;6.88;4.47;;;9.80;99.90;;;;;;5071390;28;21408;-41
2022/11/05 10:28:18;;;;;;;5.18;4.40;;;9.90;99.90;;;;;;5083354;28;20039;-41
2022/11/05 10:30:45;;;;;;;6.93;4.70;;;10.00;99.90;;;;;;5070950;28;20036;-40
2022/11/05 10:33:15;;;;;;;5.95;4.63;;;10.00;99.90;;;;;;5084002;28;20027;-39
2022/11/05 10:35:50;;;;;;;8.10;5.10;;;10.10;99.90;;;;;;5071358;28;20040;-41
2022/11/05 10:38:16;;;;;;;5.75;4.55;;;10.20;99.90;;;;;;5064022;28;20029;-39
2022/11/05 10:40:56;;;;;;;6.93;5.03;;;10.40;99.90;;;;;;5074693;28;20032;-39
2022/11/05 10:43:29;;;;;;;6.55;5.07;;;10.40;99.90;;;;;;5063448;28;20024;-40
2022/11/05 10:46:14;;;;;;;6.70;5.53;;;10.60;99.90;;;;;;5075504;28;20047;-39
2022/11/05 10:49:00;;;;;;;7.35;5.20;;;10.70;99.90;;;;;;5063354;28;20055;-41
2022/11/05 10:51:26;;;;;;;7.15;5.13;;;10.80;99.90;;;;;;5075364;28;20024;-38
2022/11/05 10:54:04;;;;;;;7.03;5.22;;;10.90;99.90;;;;;;5063528;28;20089;-38
2022/11/05 10:56:38;;;;;;;4.60;4.20;;;10.90;99.90;;;;;;5074657;28;20061;-40
2022/11/05 10:59:22;;;;;;;6.63;4.60;;;11.00;99.90;;;;;;5064374;28;20067;-41
2022/11/05 11:02:13;;;;;;;5.32;4.63;;;11.00;99.90;;;;;;5075614;28;20020;-40
2022/11/05 11:04:39;;;;;;;7.68;5.28;;;11.10;99.90;;;;;;5063623;28;20075;-40
2022/11/05 11:07:15;;;;;;;7.05;4.60;;;11.10;99.90;;;;;;5076048;28;20089;-39
2022/11/05 11:09:47;;;;;;;5.10;4.47;;;11.20;99.90;;;;;;5063123;28;20467;-41
2022/11/05 11:12:18;;;;;;;6.63;4.07;;;11.30;99.90;;;;;;5075389;28;20067;-38
2022/11/05 11:14:59;;;;;;;7.53;5.43;;;11.30;99.90;;;;;;5063404;28;20425;-39
2022/11/05 11:17:28;;;;;;;8.68;5.15;;;11.40;99.90;;;;;;5074851;28;20024;-39
2022/11/05 11:20:15;;;;;;;4.88;4.35;;;11.40;99.90;;;;;;5063937;28;20041;-38
2022/11/05 11:22:43;;;;;;;8.23;5.25;;;11.40;99.90;;;;;;5075974;28;20399;-41
2022/11/05 11:25:27;;;;;;;8.68;4.88;;;11.50;99.90;;;;;;5062335;28;20583;-38
2022/11/05 11:27:54;;;;;;;6.40;4.53;;;11.50;99.90;;;;;;5076043;28;20578;-39
2022/11/05 11:30:20;;;;;;;6.15;4.28;;;11.50;99.90;;;;;;5061889;28;20028;-42
2022/11/05 11:32:47;;;;;;;5.70;3.97;;;11.60;99.90;;;;;;5078953;28;20023;-40
2022/11/05 11:35:24;;;;;;;5.95;4.78;;;11.60;99.90;;;;;;5067628;28;20074;-40
2022/11/05 11:37:55;;;;;;;8.52;4.60;;;11.60;99.90;;;;;;5079573;28;20035;-40
2022/11/05 11:40:28;;;;;;;5.07;4.22;;;11.60;99.90;;;;;;5066580;28;20037;-38
2022/11/05 11:42:56;;;;;;;4.80;3.72;;;11.70;99.90;;;;;;5079187;28;20093;-39
2022/11/05 11:45:43;;;;;;;6.63;4.60;;;11.60;99.90;;;;;;5066397;28;20092;-42
2022/11/05 11:48:18;;;;;;;7.03;4.70;;;11.70;99.90;;;;;;5079039;28;20738;-39
2022/11/05 11:50:48;;;;;;;6.32;4.10;;;11.70;99.90;;;;;;5067580;28;20471;-40
2022/11/05 11:53:19;;;;;;;6.28;4.10;;;11.70;99.90;;;;;;5077580;28;20036;-39
2022/11/05 11:55:53;;;;;;;5.75;4.53;;;11.70;99.90;;;;;;5066901;28;20402;-40
2022/11/05 11:58:24;;;;;;;7.32;4.43;;;11.70;99.90;;;;;;5076756;28;20055;-42
2022/11/05 12:01:00;;;;;;;6.10;4.18;;;11.80;99.90;;;;;;5065277;28;20048;-42
2022/11/05 12:03:50;;;;;;;5.82;3.85;;;11.80;99.90;;;;;;5076102;28;20032;-41
2022/11/05 12:06:38;;;;;;;6.95;3.88;;;11.80;99.90;;;;;;5065095;28;20040;-39
2022/11/05 12:09:14;;;;;;;7.07;4.20;;;11.80;99.90;;;;;;5078640;28;20454;-39
2022/11/05 12:11:55;;;;;;;5.10;4.07;;;11.90;99.90;;;;;;5065756;28;20040;-39
2022/11/05 12:14:47;;;;;;;6.32;4.25;;;11.90;99.90;;;;;;5077241;28;20119;-41
2022/11/05 12:17:25;;;;;;;4.25;3.33;;;11.80;99.90;;;;;;5066124;28;20570;-42
2022/11/05 12:20:19;;;;;;;7.00;3.75;;;11.90;99.90;;;;;;5080395;28;20445;-40
2022/11/05 12:23:23;;;;;;;5.35;3.60;;;11.90;99.90;;;;;;5084384;28;20086;-37
2022/11/05 12:26:38;;;;;;;7.53;4.05;;;11.90;99.90;;;;;;5077708;28;20028;-40
2022/11/05 12:29:28;;;;;;;4.90;3.13;;;11.90;99.90;;;;;;4994420;28;20596;-41
2022/11/05 12:32:21;;;;;;;4.55;3.47;;;11.90;99.90;;;;;;5002182;28;20030;-42
2022/11/05 12:34:49;;;;;;;4.80;3.35;;;11.90;99.90;;;;;;5056801;28;20056;-42
2022/11/05 12:37:23;;;;;;;5.80;3.80;;;11.90;99.90;;;;;;5085225;28;20028;-41
2022/11/05 12:39:58;;;;;;;4.70;3.35;;;11.90;99.90;;;;;;5073763;28;20032;-41
2022/11/05 12:42:46;;;;;;;5.22;3.75;;;11.90;99.90;;;;;;5065410;28;20148;-40
2022/11/05 12:45:18;;;;;;;5.50;3.83;;;11.90;99.90;;;;;;5077183;28;20024;-41
2022/11/05 12:47:59;;;;;;;6.00;4.13;;;11.90;99.90;;;;;;5064366;28;20087;-39
2022/11/05 12:50:52;;;;;;;6.32;4.00;;;12.00;99.90;;;;;;5077767;28;20047;-40
2022/11/05 12:53:34;;;;;;;6.40;4.35;;;12.00;99.90;;;;;;5065785;28;20430;-40
2022/11/05 12:56:08;;;;;;;6.85;4.07;;;12.00;99.90;;;;;;5074126;28;20024;-40
2022/11/05 12:58:41;;;;;;;5.45;4.60;;;12.00;99.90;;;;;;5086795;28;20039;-40
2022/11/05 13:01:21;;;;;;;7.15;4.90;;;12.00;99.90;;;;;;5073636;28;20031;-40
2022/11/05 13:03:52;;;;;;;5.05;3.88;;;12.00;99.90;;;;;;5084728;28;20059;-42
2022/11/05 13:06:28;;;;;;;5.80;4.18;;;12.10;99.90;;;;;;5072069;28;20129;-41
2022/11/05 13:09:03;;;;;;;5.05;3.60;;;12.10;99.90;;;;;;5085196;28;20530;-41
2022/11/05 13:11:41;;;;;;;6.43;3.85;;;12.10;99.90;;;;;;5073960;28;20066;-40
2022/11/05 13:14:18;;;;;;;6.93;3.95;;;12.10;99.90;;;;;;5085591;28;20027;-39
2022/11/05 13:16:52;;;;;;;4.50;3.70;;;12.10;99.90;;;;;;5076320;28;20029;-40
2022/11/05 13:19:39;;;;;;;7.07;4.20;;;12.10;99.90;;;;;;5065434;28;20068;-40
2022/11/05 13:22:24;;;;;;;5.95;4.28;;;12.10;99.90;;;;;;5076739;28;20024;-41
2022/11/05 13:24:54;;;;;;;5.70;4.20;;;12.20;99.90;;;;;;5065942;28;20055;-41
2022/11/05 13:27:46;;;;;;;6.13;4.40;;;12.20;99.90;;;;;;5076255;28;20021;-40
2022/11/05 13:30:17;;;;;;;6.28;4.90;;;12.20;99.90;;;;;;5065293;28;20017;-37
2022/11/05 13:32:48;;;;;;;8.05;5.10;;;12.20;99.90;;;;;;5074728;28;20027;-39
2022/11/05 13:35:26;;;;;;;6.60;4.68;;;12.10;99.90;;;;;;5083402;28;20044;-42
2022/11/05 13:41:03;;;;;;;6.82;4.88;;;12.20;99.90;;;;;;5083220;28;20038;-41
2022/11/05 13:43:35;;;;;;;6.53;4.65;;;12.20;99.90;;;;;;5077232;28;20032;-40
2022/11/05 13:46:15;;;;;;;5.05;4.50;;;12.20;99.90;;;;;;5080646;28;20016;-39
2022/11/05 13:48:50;;;;;;;5.53;5.03;;;12.20;99.90;;;;;;5078039;28;20024;-41
2022/11/05 13:51:28;;;;;;;8.93;5.32;;;12.20;99.90;;;;;;5079730;28;20391;-39
2022/11/05 13:53:53;;;;;;;7.78;4.78;;;12.20;99.90;;;;;;5078110;28;20386;-40
2022/11/05 13:56:26;;;;;;;7.90;5.55;;;12.20;99.90;;;;;;5080126;28;20471;-39
2022/11/05 13:58:57;;;;;;;;;;;12.20;99.90;;;;;;5075985;28;20030;-40